Time;durP1;ratioP1;P1;durP2;ratioP2;P2;SDS_P1;SDS_P2;PMS_P1;PMS_P2;Temp;Humidity;BMP_temperature;BMP_pressure;BME280_temperature;BME280_humidity;BME280_pressure;Samples;Min_cycle;Max_cycle;Signal;HPM_P1;HPM_P2
2023/06/12 00:02:17;;;;;;;7.75;5.45;;;12.40;99.90;;;;;;5024729;27;20058;-82
2023/06/12 00:04:44;;;;;;;6.50;4.57;;;12.50;99.90;;;;;;5137701;27;20015;-82
2023/06/12 00:07:13;;;;;;;6.88;5.15;;;12.40;99.90;;;;;;5136345;27;20019;-82
2023/06/12 00:09:39;;;;;;;5.45;4.93;;;12.40;99.90;;;;;;5138913;27;20024;-84
2023/06/12 00:12:05;;;;;;;5.50;4.65;;;12.40;99.90;;;;;;5136324;27;20027;-83
2023/06/12 00:14:31;;;;;;;6.75;5.20;;;12.40;99.90;;;;;;5137588;27;20038;-82
2023/06/12 00:16:57;;;;;;;9.52;5.15;;;12.30;99.90;;;;;;5133418;27;20027;-82
2023/06/12 00:19:22;;;;;;;5.45;4.90;;;12.30;99.90;;;;;;5013100;28;20053;-83
2023/06/12 00:21:48;;;;;;;8.40;5.88;;;12.30;99.90;;;;;;5011911;28;20049;-83
2023/06/12 00:24:13;;;;;;;7.20;4.82;;;12.30;99.90;;;;;;5013092;28;20029;-82
2023/06/12 00:26:39;;;;;;;8.50;5.30;;;12.30;99.90;;;;;;5012996;28;20047;-82
2023/06/12 00:29:05;;;;;;;6.05;4.63;;;12.30;99.90;;;;;;5011722;28;20025;-83
2023/06/12 00:31:30;;;;;;;8.27;5.50;;;12.30;99.90;;;;;;5012530;28;20030;-83
2023/06/12 00:33:56;;;;;;;7.18;5.53;;;12.20;99.90;;;;;;5013121;28;20065;-83
2023/06/12 00:36:22;;;;;;;8.65;5.63;;;12.20;99.90;;;;;;5011781;28;20022;-82
2023/06/12 00:38:48;;;;;;;6.07;5.38;;;12.20;99.90;;;;;;5011667;28;20029;-82
2023/06/12 00:41:13;;;;;;;6.93;5.15;;;12.20;99.90;;;;;;5011541;28;20018;-82
2023/06/12 00:43:39;;;;;;;8.00;5.53;;;12.20;99.90;;;;;;5011542;28;20014;-82
2023/06/12 00:46:06;;;;;;;8.95;5.05;;;12.20;99.90;;;;;;5012669;28;20437;-83
2023/06/12 00:48:32;;;;;;;7.25;5.35;;;12.10;99.90;;;;;;5012677;28;20026;-84
2023/06/12 00:50:59;;;;;;;7.30;5.38;;;12.10;99.90;;;;;;5012606;28;20054;-83
2023/06/12 00:53:24;;;;;;;7.75;5.80;;;12.10;99.90;;;;;;5011608;28;20099;-82
2023/06/12 00:55:50;;;;;;;6.70;5.65;;;12.00;99.90;;;;;;5011538;28;20026;-82
2023/06/12 00:58:16;;;;;;;8.35;5.30;;;12.00;99.90;;;;;;5012715;28;20375;-83
2023/06/12 01:00:43;;;;;;;10.90;5.32;;;12.00;99.90;;;;;;5012281;28;20095;-82
2023/06/12 01:03:12;;;;;;;9.35;5.68;;;12.00;99.90;;;;;;5012549;28;20022;-83
2023/06/12 01:05:42;;;;;;;10.10;6.47;;;11.90;99.90;;;;;;5011450;28;20034;-83
2023/06/12 01:08:16;;;;;;;10.65;6.05;;;11.90;99.90;;;;;;5011738;28;20380;-82
2023/06/12 01:11:11;;;;;;;7.18;6.05;;;11.90;99.90;;;;;;5012369;28;20105;-83
2023/06/12 01:13:37;;;;;;;9.40;6.22;;;11.80;99.90;;;;;;5012323;28;20064;-83
2023/06/12 01:16:03;;;;;;;7.47;5.93;;;11.80;99.90;;;;;;5013794;28;20086;-83
2023/06/12 01:18:29;;;;;;;7.97;5.90;;;11.80;99.90;;;;;;5011181;28;20026;-83
2023/06/12 01:20:57;;;;;;;6.50;5.45;;;11.70;99.90;;;;;;5011124;28;20550;-83
2023/06/12 01:23:50;;;;;;;8.38;5.95;;;11.70;99.90;;;;;;5011091;28;20026;-83
2023/06/12 01:26:25;;;;;;;;;;;11.70;99.90;;;;;;5011335;28;20376;-83
2023/06/12 01:29:23;;;;;;;7.65;5.60;;;11.70;99.90;;;;;;5010886;28;20370;-84
2023/06/12 01:32:07;;;;;;;9.75;6.22;;;11.70;99.90;;;;;;5012051;28;20036;-83
2023/06/12 01:34:53;;;;;;;7.07;5.90;;;11.70;99.90;;;;;;5011954;28;20446;-82
2023/06/12 01:37:42;;;;;;;7.40;5.70;;;11.70;99.90;;;;;;5012259;28;20023;-85
2023/06/12 01:40:09;;;;;;;8.73;5.93;;;11.70;99.90;;;;;;5010959;28;20483;-84
2023/06/12 01:42:35;;;;;;;8.15;5.50;;;11.70;99.90;;;;;;5010733;28;20053;-83
2023/06/12 01:45:00;;;;;;;7.18;5.47;;;11.70;99.90;;;;;;5010686;28;20107;-84
2023/06/12 01:47:26;;;;;;;9.15;7.07;;;11.70;99.90;;;;;;5010598;28;20025;-84
2023/06/12 01:49:52;;;;;;;7.63;5.70;;;11.70;99.90;;;;;;5010127;28;20452;-84
2023/06/12 01:52:18;;;;;;;6.68;5.97;;;11.70;99.90;;;;;;5010363;28;20429;-85
2023/06/12 01:54:47;;;;;;;7.57;6.18;;;11.70;99.90;;;;;;5010421;28;20021;-85
2023/06/12 01:57:13;;;;;;;7.45;6.22;;;11.60;99.90;;;;;;5011222;28;20022;-84
2023/06/12 01:59:39;;;;;;;8.15;5.65;;;11.70;99.90;;;;;;5011524;28;20083;-85
2023/06/12 02:02:05;;;;;;;9.30;6.70;;;11.60;99.90;;;;;;5010610;28;20022;-83
2023/06/12 02:04:31;;;;;;;6.68;5.97;;;11.60;99.90;;;;;;5011498;28;20026;-84
2023/06/12 02:06:57;;;;;;;9.23;6.50;;;11.60;99.90;;;;;;5010205;28;20033;-83
2023/06/12 02:09:23;;;;;;;7.35;6.00;;;11.60;99.90;;;;;;5011663;28;20030;-83
2023/06/12 02:11:48;;;;;;;8.05;6.20;;;11.60;99.90;;;;;;5011518;28;20037;-83
2023/06/12 02:14:15;;;;;;;9.82;6.65;;;11.60;99.90;;;;;;5011363;28;20057;-83
2023/06/12 02:16:41;;;;;;;8.73;6.43;;;11.50;99.90;;;;;;5011416;28;20059;-83
2023/06/12 02:19:07;;;;;;;7.53;5.82;;;11.50;99.90;;;;;;5010411;28;20022;-83
2023/06/12 02:21:32;;;;;;;9.30;6.78;;;11.50;99.90;;;;;;5010408;28;20147;-83
2023/06/12 02:23:58;;;;;;;9.10;6.32;;;11.50;99.90;;;;;;5010054;28;20144;-83
2023/06/12 02:26:23;;;;;;;8.95;5.55;;;11.50;99.90;;;;;;5011357;28;20029;-83
2023/06/12 02:29:09;;;;;;;9.05;6.43;;;11.40;99.90;;;;;;5010070;28;20120;-84
2023/06/12 02:31:35;;;;;;;8.10;6.15;;;11.40;99.90;;;;;;5011330;28;20018;-83
2023/06/12 02:34:01;;;;;;;9.90;6.60;;;11.40;99.90;;;;;;5009948;28;20041;-84
2023/06/12 02:36:28;;;;;;;10.10;6.40;;;11.40;99.90;;;;;;5009874;28;20076;-83
2023/06/12 02:38:53;;;;;;;7.55;6.15;;;11.40;99.90;;;;;;5009668;28;20022;-83
2023/06/12 02:41:19;;;;;;;8.30;6.10;;;11.30;99.90;;;;;;5011367;28;20026;-83
2023/06/12 02:43:44;;;;;;;7.68;6.72;;;11.30;99.90;;;;;;5010233;28;20050;-82
2023/06/12 02:46:10;;;;;;;8.30;6.32;;;11.30;99.90;;;;;;5009834;28;20472;-82
2023/06/12 02:48:36;;;;;;;8.45;7.18;;;11.30;99.90;;;;;;5009698;28;20049;-83
2023/06/12 02:51:01;;;;;;;8.15;6.30;;;11.30;99.90;;;;;;5009617;28;20049;-83
2023/06/12 02:53:27;;;;;;;6.60;5.90;;;11.30;99.90;;;;;;5009590;28;20045;-83
2023/06/12 02:55:52;;;;;;;12.10;6.10;;;11.30;99.90;;;;;;5010872;28;20097;-83
2023/06/12 02:58:18;;;;;;;10.38;5.78;;;11.30;99.90;;;;;;5010145;28;20025;-83
2023/06/12 03:00:44;;;;;;;7.53;6.15;;;11.30;99.90;;;;;;5009797;28;20078;-83
2023/06/12 03:03:12;;;;;;;8.52;5.85;;;11.30;99.90;;;;;;5009557;28;20022;-83
2023/06/12 03:05:38;;;;;;;8.10;5.90;;;11.30;99.90;;;;;;5009506;28;20025;-83
2023/06/12 03:08:04;;;;;;;7.25;5.88;;;11.30;99.90;;;;;;5010644;28;20017;-83
2023/06/12 03:10:30;;;;;;;9.23;6.40;;;11.30;99.90;;;;;;5009443;28;20109;-83
2023/06/12 03:12:56;;;;;;;8.18;5.75;;;11.30;99.90;;;;;;5009233;28;20128;-84
2023/06/12 03:15:21;;;;;;;7.85;5.95;;;11.30;99.90;;;;;;5011261;28;20033;-85
2023/06/12 03:17:47;;;;;;;7.97;6.55;;;11.40;99.90;;;;;;5009460;28;20022;-84
2023/06/12 03:20:14;;;;;;;7.03;5.95;;;11.40;99.90;;;;;;5009217;28;20075;-85
2023/06/12 03:22:43;;;;;;;8.07;6.47;;;11.40;99.90;;;;;;5009235;28;20101;-85
2023/06/12 03:25:10;;;;;;;10.85;6.10;;;11.50;99.90;;;;;;5009256;28;20025;-85
2023/06/12 03:27:37;;;;;;;6.68;5.60;;;11.70;99.90;;;;;;5009220;28;20082;-83
2023/06/12 03:30:03;;;;;;;7.90;5.97;;;11.80;99.90;;;;;;5009253;28;20032;-85
2023/06/12 03:32:29;;;;;;;7.03;5.40;;;12.00;99.90;;;;;;5012148;28;20030;-85
2023/06/12 03:34:55;;;;;;;9.75;5.50;;;12.20;99.90;;;;;;5012555;28;20509;-83
2023/06/12 03:37:21;;;;;;;7.55;6.30;;;12.40;99.90;;;;;;5013145;28;20033;-83
2023/06/12 03:39:47;;;;;;;8.52;5.63;;;12.50;99.90;;;;;;5012707;28;20026;-85
2023/06/12 03:42:13;;;;;;;7.88;5.70;;;12.70;99.90;;;;;;5012590;28;20033;-84
2023/06/12 03:44:39;;;;;;;7.47;5.10;;;12.70;99.90;;;;;;5013737;28;20364;-85
2023/06/12 03:47:05;;;;;;;6.50;4.95;;;12.80;99.90;;;;;;5013593;28;20026;-84
2023/06/12 03:49:30;;;;;;;10.90;5.90;;;12.90;99.90;;;;;;5012273;28;20030;-83
2023/06/12 03:51:56;;;;;;;7.85;5.72;;;13.00;99.90;;;;;;5012290;28;20507;-84
2023/06/12 03:54:21;;;;;;;6.18;5.03;;;12.90;99.90;;;;;;5012157;28;20433;-84
2023/06/12 03:56:48;;;;;;;6.00;5.20;;;12.90;99.90;;;;;;5012224;28;20109;-83
2023/06/12 03:59:13;;;;;;;9.35;5.38;;;13.00;99.90;;;;;;5013756;28;20022;-86
2023/06/12 04:01:42;;;;;;;6.32;5.65;;;13.00;99.90;;;;;;5012687;28;20018;-84
2023/06/12 04:04:09;;;;;;;8.57;5.97;;;13.20;99.90;;;;;;5012169;28;20018;-86
2023/06/12 04:06:40;;;;;;;8.52;6.47;;;13.20;99.90;;;;;;5012125;28;20022;-86
2023/06/12 04:09:07;;;;;;;6.55;5.57;;;13.10;99.90;;;;;;5012010;28;20025;-84
2023/06/12 04:11:34;;;;;;;7.88;5.80;;;13.20;99.90;;;;;;5012106;28;20053;-84
2023/06/12 04:14:00;;;;;;;7.68;5.53;;;13.20;99.90;;;;;;5011858;28;20075;-84
2023/06/12 04:16:27;;;;;;;8.63;5.63;;;13.20;99.90;;;;;;5011930;28;20488;-84
2023/06/12 04:18:53;;;;;;;9.07;6.15;;;13.30;99.90;;;;;;5014492;28;20026;-84
2023/06/12 04:21:21;;;;;;;6.20;5.47;;;13.20;99.90;;;;;;5013332;28;20030;-83
2023/06/12 04:23:47;;;;;;;6.25;5.05;;;13.20;99.90;;;;;;5011827;28;20135;-83
2023/06/12 04:26:14;;;;;;;7.45;5.43;;;13.30;99.90;;;;;;5013075;28;20022;-83
2023/06/12 04:28:41;;;;;;;6.30;5.55;;;13.30;99.90;;;;;;5013074;28;20063;-84
2023/06/12 04:31:07;;;;;;;6.05;5.47;;;13.20;99.90;;;;;;5011761;28;20030;-83
2023/06/12 04:33:35;;;;;;;7.03;4.75;;;13.30;99.90;;;;;;5011631;28;20038;-83
2023/06/12 04:36:02;;;;;;;8.20;4.90;;;13.20;99.90;;;;;;5013019;28;20428;-84
2023/06/12 04:38:30;;;;;;;5.95;5.03;;;13.20;99.90;;;;;;5012838;28;20485;-85
2023/06/12 04:40:58;;;;;;;7.07;5.00;;;13.10;99.90;;;;;;5011741;28;20117;-85
2023/06/12 04:43:24;;;;;;;5.97;5.38;;;12.90;99.90;;;;;;5012855;28;20436;-85
2023/06/12 04:45:51;;;;;;;6.35;4.90;;;12.80;99.90;;;;;;5031013;28;20491;-84
2023/06/12 04:48:17;;;;;;;8.90;5.45;;;12.90;99.90;;;;;;5031820;28;20026;-83
2023/06/12 04:50:44;;;;;;;7.05;5.40;;;12.70;99.90;;;;;;5026069;28;20490;-82
2023/06/12 04:53:09;;;;;;;6.88;5.22;;;12.70;99.90;;;;;;5031012;28;20394;-84
2023/06/12 04:55:35;;;;;;;6.78;5.00;;;12.60;99.90;;;;;;5031123;28;20121;-84
2023/06/12 04:58:00;;;;;;;9.65;4.95;;;12.60;99.90;;;;;;5028608;28;20113;-82
2023/06/12 05:00:28;;;;;;;4.72;4.22;;;12.60;99.90;;;;;;5011557;28;20021;-82
2023/06/12 05:02:55;;;;;;;8.05;5.10;;;12.60;99.90;;;;;;5017096;28;20021;-82
2023/06/12 05:05:21;;;;;;;6.93;4.70;;;12.70;99.90;;;;;;5030820;28;20032;-83
2023/06/12 05:07:47;;;;;;;7.35;4.25;;;12.90;99.90;;;;;;5031874;28;20386;-85
2023/06/12 05:10:14;;;;;;;5.72;4.50;;;13.10;99.90;;;;;;5032024;28;20020;-85
2023/06/12 05:12:39;;;;;;;5.05;4.45;;;13.20;99.90;;;;;;5030506;28;20070;-83
2023/06/12 05:15:07;;;;;;;6.40;4.22;;;13.20;99.90;;;;;;5030594;28;20108;-83
2023/06/12 05:17:33;;;;;;;4.57;4.10;;;13.40;99.90;;;;;;5031641;28;20078;-83
2023/06/12 05:19:58;;;;;;;9.90;4.63;;;13.50;99.90;;;;;;5028693;28;20108;-84
2023/06/12 05:22:25;;;;;;;5.70;4.22;;;13.50;99.90;;;;;;5030640;28;20028;-83
2023/06/12 05:24:50;;;;;;;5.82;4.10;;;13.70;99.90;;;;;;5030000;28;20032;-83
2023/06/12 05:27:16;;;;;;;5.80;3.92;;;13.80;99.90;;;;;;5020012;28;20026;-83
2023/06/12 05:29:41;;;;;;;7.13;3.95;;;14.00;99.90;;;;;;5020054;28;20495;-82
2023/06/12 05:32:07;;;;;;;3.88;2.67;;;14.00;97.00;;;;;;5020274;28;20034;-83
2023/06/12 05:34:33;;;;;;;5.95;3.70;;;14.00;93.50;;;;;;5021294;28;20117;-82
2023/06/12 05:36:59;;;;;;;8.20;3.60;;;14.00;91.00;;;;;;5017533;28;20025;-83
2023/06/12 05:39:25;;;;;;;4.05;3.65;;;14.00;86.90;;;;;;5010767;28;20426;-84
2023/06/12 05:41:50;;;;;;;4.82;3.35;;;14.00;87.60;;;;;;5010833;28;20030;-84
2023/06/12 05:44:16;;;;;;;6.47;3.53;;;14.00;87.50;;;;;;5011967;28;20037;-82
2023/06/12 05:46:43;;;;;;;5.25;2.80;;;14.10;89.40;;;;;;5010646;28;20479;-85
2023/06/12 05:49:08;;;;;;;8.15;3.80;;;14.20;87.50;;;;;;5011807;28;20026;-84
2023/06/12 05:51:35;;;;;;;4.53;3.63;;;14.20;87.50;;;;;;5010541;28;20096;-82
2023/06/12 05:54:01;;;;;;;7.22;4.13;;;14.40;87.20;;;;;;5016455;28;20099;-83
2023/06/12 05:56:27;;;;;;;3.80;3.17;;;14.40;85.10;;;;;;5010770;28;20050;-83
2023/06/12 05:58:52;;;;;;;4.82;3.28;;;14.60;86.30;;;;;;5030226;28;20025;-84
2023/06/12 06:01:21;;;;;;;4.78;2.72;;;14.70;84.60;;;;;;5029431;28;20074;-83
2023/06/12 06:03:48;;;;;;;5.50;3.17;;;14.80;82.80;;;;;;5027980;28;20025;-83
2023/06/12 06:06:17;;;;;;;3.80;2.78;;;15.10;82.10;;;;;;5027828;28;20024;-82
2023/06/12 06:08:43;;;;;;;5.53;2.80;;;15.20;79.10;;;;;;5028852;28;20029;-83
2023/06/12 06:11:09;;;;;;;4.55;3.35;;;15.20;75.90;;;;;;5030175;28;20025;-83
2023/06/12 06:13:35;;;;;;;3.30;2.55;;;15.40;77.10;;;;;;5012483;28;20482;-83
2023/06/12 06:16:01;;;;;;;4.10;2.80;;;15.50;75.50;;;;;;5028657;28;20033;-83
2023/06/12 06:18:30;;;;;;;2.90;2.55;;;15.40;74.00;;;;;;5015837;28;20108;-83
2023/06/12 06:20:56;;;;;;;6.50;3.25;;;15.60;74.00;;;;;;5008189;28;20078;-83
2023/06/12 06:23:22;;;;;;;3.80;2.88;;;15.70;72.70;;;;;;5012374;28;20087;-83
2023/06/12 06:25:48;;;;;;;3.38;2.55;;;15.90;71.80;;;;;;5008044;28;20018;-83
2023/06/12 06:28:14;;;;;;;4.85;2.70;;;15.80;69.70;;;;;;5008500;28;20030;-83
2023/06/12 06:30:40;;;;;;;2.50;2.30;;;15.80;68.00;;;;;;5009512;28;20051;-84
2023/06/12 06:33:06;;;;;;;6.68;2.75;;;15.70;69.40;;;;;;5008128;28;20038;-83
2023/06/12 06:35:31;;;;;;;4.90;2.60;;;15.90;70.70;;;;;;5009286;28;20029;-83
2023/06/12 06:37:57;;;;;;;3.08;2.70;;;16.00;69.60;;;;;;5009580;28;20021;-84
2023/06/12 06:40:24;;;;;;;2.78;2.58;;;16.00;69.80;;;;;;5009569;28;20108;-84
2023/06/12 06:42:50;;;;;;;3.72;2.65;;;16.00;70.00;;;;;;5009578;28;20368;-83
2023/06/12 06:45:15;;;;;;;3.63;2.47;;;15.90;70.60;;;;;;5009542;28;20051;-83
2023/06/12 06:47:41;;;;;;;5.18;2.75;;;16.00;71.50;;;;;;5007801;28;20412;-83
2023/06/12 06:50:07;;;;;;;3.65;2.90;;;16.20;72.30;;;;;;5008846;28;20046;-84
2023/06/12 06:52:32;;;;;;;4.47;2.67;;;15.90;71.50;;;;;;5011446;28;20128;-83
2023/06/12 06:54:58;;;;;;;4.43;3.35;;;15.90;72.80;;;;;;5009844;28;20489;-83
2023/06/12 06:57:25;;;;;;;7.15;3.55;;;16.00;72.30;;;;;;5007807;28;20030;-83
2023/06/12 06:59:54;;;;;;;15.43;3.97;;;15.90;72.20;;;;;;5007663;28;20433;-83
2023/06/12 07:02:20;;;;;;;7.63;2.83;;;15.90;72.50;;;;;;5007658;28;20030;-83
2023/06/12 07:04:46;;;;;;;4.80;2.80;;;16.00;71.00;;;;;;5008778;28;20113;-83
2023/06/12 07:07:12;;;;;;;3.50;2.40;;;15.90;68.50;;;;;;5008073;28;20092;-84
2023/06/12 07:09:38;;;;;;;5.68;2.42;;;16.00;67.20;;;;;;5008947;28;20120;-83
2023/06/12 07:12:04;;;;;;;4.75;2.40;;;16.10;67.00;;;;;;5007415;28;20065;-84
2023/06/12 07:14:29;;;;;;;3.00;2.55;;;16.40;67.50;;;;;;5008877;28;20034;-83
2023/06/12 07:16:55;;;;;;;4.60;2.17;;;16.70;66.80;;;;;;5008025;28;20030;-84
2023/06/12 07:19:20;;;;;;;26.25;4.60;;;16.80;62.20;;;;;;5007536;28;20387;-83
2023/06/12 07:21:46;;;;;;;3.47;2.42;;;16.90;59.30;;;;;;5008759;28;20069;-84
2023/06/12 07:24:12;;;;;;;6.43;2.35;;;16.80;57.80;;;;;;5009001;28;20053;-84
2023/06/12 07:26:38;;;;;;;4.20;1.95;;;17.00;58.00;;;;;;5009383;28;20029;-84
2023/06/12 07:29:03;;;;;;;5.45;2.40;;;17.20;57.00;;;;;;5011366;28;20489;-84
2023/06/12 07:31:29;;;;;;;4.53;2.13;;;17.10;55.50;;;;;;5010632;28;20026;-84
2023/06/12 07:33:55;;;;;;;6.97;2.22;;;17.00;55.70;;;;;;5010447;28;20034;-84
2023/06/12 07:36:21;;;;;;;3.85;2.00;;;17.00;55.40;;;;;;5010642;28;20074;-84
2023/06/12 07:38:46;;;;;;;6.97;2.13;;;17.30;56.90;;;;;;5010445;28;20022;-83
2023/06/12 07:41:12;;;;;;;3.67;1.98;;;17.50;55.80;;;;;;5012533;28;20034;-84
2023/06/12 07:43:37;;;;;;;8.57;2.75;;;17.40;57.20;;;;;;5009095;28;20112;-84
2023/06/12 07:46:06;;;;;;;2.55;2.30;;;17.40;58.10;;;;;;5010449;28;20057;-84
2023/06/12 07:48:32;;;;;;;2.60;2.40;;;17.60;58.50;;;;;;5009223;28;20037;-84
2023/06/12 07:50:57;;;;;;;5.38;2.75;;;17.70;57.40;;;;;;5010308;28;20449;-84
2023/06/12 07:53:23;;;;;;;4.13;2.20;;;17.40;56.80;;;;;;5010762;28;20038;-84
2023/06/12 07:55:49;;;;;;;8.07;2.67;;;17.30;57.60;;;;;;5010312;28;20522;-84
2023/06/12 07:58:15;;;;;;;6.57;2.33;;;17.40;57.80;;;;;;5008919;28;20037;-84
2023/06/12 08:00:40;;;;;;;3.17;2.25;;;17.50;57.80;;;;;;5010358;28;20495;-84
2023/06/12 08:03:08;;;;;;;3.63;2.60;;;17.30;57.60;;;;;;5010245;28;20014;-84
2023/06/12 08:05:34;;;;;;;5.70;2.10;;;17.50;57.70;;;;;;5009200;28;20378;-84
2023/06/12 08:08:01;;;;;;;6.07;3.05;;;17.60;57.30;;;;;;5010927;28;20022;-84
2023/06/12 08:10:27;;;;;;;2.85;2.47;;;17.40;58.20;;;;;;5008978;28;20071;-84
2023/06/12 08:12:53;;;;;;;2.78;2.20;;;17.40;57.90;;;;;;5008709;28;20447;-84
2023/06/12 08:15:20;;;;;;;3.47;2.40;;;17.30;59.30;;;;;;5010154;28;20471;-84
2023/06/12 08:17:46;;;;;;;4.95;2.97;;;17.30;59.50;;;;;;5010654;28;20022;-84
2023/06/12 08:20:15;;;;;;;7.07;2.38;;;16.90;58.90;;;;;;5012969;28;20030;-84
2023/06/12 08:22:42;;;;;;;14.32;4.40;;;17.00;60.00;;;;;;5014858;28;20105;-84
2023/06/12 08:25:08;;;;;;;5.35;2.30;;;17.00;60.00;;;;;;5013368;28;20030;-84
2023/06/12 08:27:34;;;;;;;5.68;2.40;;;17.10;60.30;;;;;;5011981;28;20026;-84
2023/06/12 08:30:01;;;;;;;5.40;2.20;;;17.50;60.30;;;;;;5011920;28;20026;-84
2023/06/12 08:32:27;;;;;;;2.80;2.47;;;17.80;59.10;;;;;;5011994;28;20071;-84
2023/06/12 08:34:53;;;;;;;3.10;2.80;;;18.10;58.00;;;;;;5016083;28;20395;-84
2023/06/12 08:37:21;;;;;;;7.85;2.47;;;18.30;57.50;;;;;;5011950;28;20057;-84
2023/06/12 08:39:47;;;;;;;4.13;2.53;;;18.30;56.60;;;;;;5011948;28;20046;-84
2023/06/12 08:42:17;;;;;;;2.72;2.38;;;17.90;56.00;;;;;;5013197;28;20033;-85
2023/06/12 08:44:47;;;;;;;7.10;2.95;;;17.70;57.50;;;;;;5012089;28;20025;-84
2023/06/12 08:47:16;;;;;;;4.25;2.22;;;17.70;58.50;;;;;;5013905;28;20026;-84
2023/06/12 08:49:42;;;;;;;6.40;2.67;;;17.60;58.50;;;;;;5014025;28;20109;-84
2023/06/12 08:52:10;;;;;;;2.65;2.00;;;17.50;58.70;;;;;;5012758;28;20141;-84
2023/06/12 08:54:39;;;;;;;4.20;1.67;;;17.80;58.70;;;;;;5012888;28;20022;-84
2023/06/12 08:57:08;;;;;;;4.82;2.70;;;17.80;58.10;;;;;;5012123;27;20030;-84
2023/06/12 08:59:34;;;;;;;8.05;2.15;;;17.50;57.60;;;;;;5012792;28;20101;-84
2023/06/12 09:02:01;;;;;;;4.72;2.70;;;17.30;57.60;;;;;;5014175;28;20022;-84
2023/06/12 09:04:44;;;;;;;4.72;2.40;;;17.30;57.40;;;;;;5011527;28;20026;-84
2023/06/12 09:07:12;;;;;;;3.63;2.20;;;17.50;57.80;;;;;;5011378;28;20163;-84
2023/06/12 09:09:39;;;;;;;9.82;3.15;;;17.80;57.80;;;;;;5012707;28;20479;-84
2023/06/12 09:12:06;;;;;;;6.40;2.50;;;17.50;56.50;;;;;;5011237;28;20036;-84
2023/06/12 09:14:34;;;;;;;5.93;2.65;;;17.40;57.10;;;;;;5013173;28;20095;-84
2023/06/12 09:17:00;;;;;;;5.45;2.55;;;17.30;56.70;;;;;;5011332;28;20022;-84
2023/06/12 09:19:48;;;;;;;2.63;2.30;;;17.50;57.20;;;;;;5012542;28;20018;-84
2023/06/12 09:22:14;;;;;;;9.70;3.33;;;17.80;56.10;;;;;;5020558;27;20038;-84
2023/06/12 09:24:40;;;;;;;4.93;2.47;;;17.60;54.90;;;;;;5136718;27;20384;-84
2023/06/12 09:27:07;;;;;;;10.30;3.05;;;17.50;55.30;;;;;;5137444;27;20026;-84
2023/06/12 09:29:35;;;;;;;12.88;3.33;;;17.40;57.50;;;;;;5135898;27;20019;-84
2023/06/12 09:32:02;;;;;;;7.07;2.88;;;17.30;56.10;;;;;;5134850;27;20430;-84
2023/06/12 09:34:30;;;;;;;9.48;3.08;;;17.20;56.80;;;;;;5135980;27;20496;-84
2023/06/12 09:36:56;;;;;;;3.45;2.60;;;17.10;55.90;;;;;;5136271;27;20019;-84
2023/06/12 09:39:26;;;;;;;6.72;2.58;;;17.60;56.10;;;;;;5137282;27;20015;-84
2023/06/12 09:41:52;;;;;;;11.52;3.40;;;17.90;54.10;;;;;;5134859;27;20011;-84
2023/06/12 09:44:25;;;;;;;3.55;2.30;;;18.10;54.50;;;;;;5134659;27;20019;-84
2023/06/12 09:46:52;;;;;;;3.80;2.03;;;18.20;54.40;;;;;;5135822;27;20095;-84
2023/06/12 09:49:22;;;;;;;4.18;1.92;;;18.00;54.40;;;;;;5135891;27;20035;-84
2023/06/12 09:51:49;;;;;;;8.45;2.33;;;17.90;53.00;;;;;;5135472;27;20126;-84
2023/06/12 09:54:25;;;;;;;2.85;2.33;;;18.00;53.40;;;;;;5135849;27;20070;-84
2023/06/12 09:56:53;;;;;;;6.35;2.85;;;18.10;54.00;;;;;;5134441;27;20460;-84
2023/06/12 09:59:21;;;;;;;3.80;2.28;;;17.90;53.30;;;;;;5134653;27;20023;-84
2023/06/12 10:01:49;;;;;;;7.28;2.83;;;17.90;53.20;;;;;;5135682;27;20399;-84
2023/06/12 10:04:47;;;;;;;3.13;2.28;;;18.10;54.30;;;;;;5135598;27;20016;-84
2023/06/12 10:07:19;;;;;;;6.72;2.55;;;18.50;53.50;;;;;;5135499;27;20019;-84
2023/06/12 10:09:47;;;;;;;4.80;2.72;;;18.80;53.10;;;;;;5134434;27;20023;-84
2023/06/12 10:12:14;;;;;;;2.17;1.83;;;18.80;53.10;;;;;;5135427;27;20100;-84
2023/06/12 10:14:40;;;;;;;4.13;2.25;;;18.50;52.30;;;;;;5134176;27;20019;-84
2023/06/12 10:17:08;;;;;;;2.65;1.90;;;18.40;52.20;;;;;;5135310;27;20015;-84
2023/06/12 10:19:36;;;;;;;3.30;2.30;;;18.20;52.10;;;;;;5136670;27;20023;-84
2023/06/12 10:22:01;;;;;;;3.17;2.03;;;18.00;51.70;;;;;;5135656;27;20118;-84
2023/06/12 10:24:29;;;;;;;3.60;2.60;;;17.80;52.00;;;;;;5133786;27;20132;-84
2023/06/12 10:26:56;;;;;;;4.65;2.60;;;17.60;52.80;;;;;;5135125;27;20027;-83
2023/06/12 10:29:29;;;;;;;4.25;2.30;;;17.50;53.60;;;;;;5042864;27;20040;-84
2023/06/12 10:32:14;;;;;;;2.45;2.13;;;17.30;53.60;;;;;;5010253;28;20070;-83
2023/06/12 10:34:42;;;;;;;3.15;2.72;;;17.50;54.60;;;;;;5009826;28;20079;-83
2023/06/12 10:37:24;;;;;;;2.80;1.75;;;18.00;53.00;;;;;;5008139;28;20034;-84
2023/06/12 10:40:09;;;;;;;5.57;1.90;;;18.10;51.30;;;;;;5018928;28;20073;-84
2023/06/12 10:42:47;;;;;;;3.08;2.45;;;18.00;51.10;;;;;;5022910;28;20030;-84
2023/06/12 10:45:24;;;;;;;2.78;2.58;;;17.90;52.10;;;;;;5019062;28;20025;-84
2023/06/12 10:48:04;;;;;;;5.00;2.28;;;17.80;52.00;;;;;;5026245;28;20037;-85
2023/06/12 10:50:31;;;;;;;3.53;1.98;;;18.10;51.30;;;;;;5023946;28;20046;-84
2023/06/12 10:53:00;;;;;;;5.03;2.05;;;18.40;50.70;;;;;;5017850;28;20045;-84
2023/06/12 10:55:36;;;;;;;3.80;2.08;;;18.40;49.60;;;;;;5017434;28;20105;-84
2023/06/12 10:58:04;;;;;;;5.82;2.15;;;18.60;50.30;;;;;;5023203;28;20045;-84
2023/06/12 11:00:32;;;;;;;2.33;1.52;;;18.80;49.10;;;;;;5016022;28;20037;-84
2023/06/12 11:03:04;;;;;;;3.15;2.10;;;19.00;48.50;;;;;;5009457;28;20087;-84
2023/06/12 11:05:31;;;;;;;2.80;2.25;;;19.10;48.60;;;;;;5009494;28;20050;-84
2023/06/12 11:08:07;;;;;;;4.90;2.25;;;19.10;47.70;;;;;;5007604;28;20089;-84
2023/06/12 11:10:35;;;;;;;3.40;2.35;;;19.10;48.20;;;;;;5008247;28;20057;-83
2023/06/12 11:13:02;;;;;;;2.40;2.10;;;18.60;48.20;;;;;;5009648;28;20045;-84
2023/06/12 11:15:28;;;;;;;3.25;2.30;;;18.40;47.60;;;;;;5015812;28;20018;-85
2023/06/12 11:17:54;;;;;;;2.67;2.05;;;18.20;48.00;;;;;;5008522;28;20117;-84
2023/06/12 11:20:22;;;;;;;4.47;1.98;;;18.20;49.80;;;;;;5012252;28;20085;-84
2023/06/12 11:22:48;;;;;;;3.92;2.22;;;18.30;49.10;;;;;;5017679;28;20046;-83
2023/06/12 11:25:17;;;;;;;2.35;2.22;;;18.10;49.20;;;;;;5018193;28;20033;-83
2023/06/12 11:27:43;;;;;;;4.80;2.35;;;18.00;49.60;;;;;;5016900;27;20069;-83
2023/06/12 11:30:12;;;;;;;3.63;2.10;;;18.20;49.60;;;;;;5028412;28;20053;-84
2023/06/12 11:32:38;;;;;;;7.72;2.30;;;18.60;49.80;;;;;;5024671;28;20056;-83
2023/06/12 11:35:06;;;;;;;3.72;2.03;;;18.80;47.80;;;;;;5019002;28;20021;-82
2023/06/12 11:37:32;;;;;;;6.32;2.40;;;19.00;48.40;;;;;;5018656;28;20038;-82
2023/06/12 11:40:00;;;;;;;4.28;2.13;;;18.80;47.60;;;;;;5068043;28;20135;-82
2023/06/12 11:42:25;;;;;;;7.65;2.13;;;18.50;48.30;;;;;;5017076;28;20086;-82
2023/06/12 11:44:51;;;;;;;2.67;2.00;;;18.20;48.60;;;;;;5009993;28;20116;-82
2023/06/12 11:47:19;;;;;;;9.48;2.95;;;17.90;48.90;;;;;;5009164;28;20034;-82
2023/06/12 11:49:44;;;;;;;4.72;1.95;;;18.00;50.40;;;;;;5016997;28;20104;-81
2023/06/12 11:52:10;;;;;;;5.80;2.13;;;18.40;50.20;;;;;;5018366;28;20125;-82
2023/06/12 11:54:55;;;;;;;3.45;1.75;;;18.80;49.30;;;;;;5019472;28;20059;-82
2023/06/12 11:57:24;;;;;;;6.38;2.38;;;18.80;45.60;;;;;;5022775;28;20026;-83
2023/06/12 11:59:49;;;;;;;8.30;2.42;;;18.80;45.50;;;;;;5023366;28;20017;-82
2023/06/12 12:02:16;;;;;;;4.88;2.33;;;18.90;46.30;;;;;;5030723;27;20056;-81
2023/06/12 12:04:41;;;;;;;15.07;2.55;;;19.00;47.20;;;;;;5018069;28;20026;-82
2023/06/12 12:07:07;;;;;;;3.55;2.08;;;18.70;47.30;;;;;;5009545;28;20030;-82
2023/06/12 12:09:33;;;;;;;6.20;2.58;;;18.60;46.50;;;;;;5010269;28;20101;-82
2023/06/12 12:12:15;;;;;;;2.83;2.50;;;18.70;47.20;;;;;;5021435;28;20029;-81
2023/06/12 12:14:48;;;;;;;12.52;2.67;;;19.10;46.70;;;;;;5021441;28;20065;-82
2023/06/12 12:17:15;;;;;;;5.38;2.35;;;19.40;45.70;;;;;;5021720;28;20041;-81
2023/06/12 12:19:41;;;;;;;3.65;2.42;;;19.60;46.00;;;;;;5011954;28;20045;-81
2023/06/12 12:22:09;;;;;;;4.75;2.35;;;19.90;46.90;;;;;;5010330;28;20364;-83
2023/06/12 12:24:36;;;;;;;3.95;1.88;;;19.80;45.60;;;;;;5010851;28;20058;-82
2023/06/12 12:27:02;;;;;;;13.60;2.97;;;19.90;45.40;;;;;;5025172;27;20425;-82
2023/06/12 12:29:28;;;;;;;2.97;1.90;;;19.80;44.10;;;;;;5031052;28;20105;-84
2023/06/12 12:31:54;;;;;;;4.25;1.98;;;19.30;44.20;;;;;;5030801;27;20022;-83
2023/06/12 12:34:20;;;;;;;7.93;2.60;;;19.10;45.00;;;;;;5026292;28;20044;-82
2023/06/12 12:36:47;;;;;;;11.23;2.72;;;19.20;44.10;;;;;;5024486;28;20017;-83
2023/06/12 12:39:13;;;;;;;2.80;1.98;;;19.30;43.40;;;;;;5031853;27;20041;-82
2023/06/12 12:41:38;;;;;;;7.07;1.90;;;19.40;43.20;;;;;;5023084;28;20441;-82
2023/06/12 12:44:04;;;;;;;4.68;1.80;;;19.70;43.70;;;;;;5015685;28;20045;-82
2023/06/12 12:46:30;;;;;;;4.65;2.28;;;20.10;44.00;;;;;;5022422;28;20041;-82
2023/06/12 12:48:55;;;;;;;6.82;2.40;;;19.80;43.00;;;;;;5030107;28;20033;-82